sensor_id;sensor_type;location;lat;lon;timestamp;P1;durP1;ratioP1;P2;durP2;ratioP2
29686;SDS011;16599;47.078;15.536;2022-12-15T00:01:58;71.40;;;32.13;;
29686;SDS011;16599;47.078;15.536;2022-12-15T00:04:45;75.07;;;32.13;;
29686;SDS011;16599;47.078;15.536;2022-12-15T00:07:31;80.88;;;34.90;;
29686;SDS011;16599;47.078;15.536;2022-12-15T00:10:16;78.38;;;33.53;;
29686;SDS011;16599;47.078;15.536;2022-12-15T00:13:08;81.22;;;34.80;;
29686;SDS011;16599;47.078;15.536;2022-12-15T00:15:55;75.32;;;33.08;;
29686;SDS011;16599;47.078;15.536;2022-12-15T00:18:40;83.88;;;34.95;;
29686;SDS011;16599;47.078;15.536;2022-12-15T00:21:26;72.88;;;31.52;;
29686;SDS011;16599;47.078;15.536;2022-12-15T00:24:12;84.50;;;33.38;;
29686;SDS011;16599;47.078;15.536;2022-12-15T00:26:57;83.05;;;34.50;;
29686;SDS011;16599;47.078;15.536;2022-12-15T00:29:42;83.45;;;34.17;;
29686;SDS011;16599;47.078;15.536;2022-12-15T00:32:27;76.32;;;32.55;;
29686;SDS011;16599;47.078;15.536;2022-12-15T00:35:12;80.78;;;34.20;;
29686;SDS011;16599;47.078;15.536;2022-12-15T00:38:04;75.88;;;32.45;;
29686;SDS011;16599;47.078;15.536;2022-12-15T00:40:53;75.10;;;32.85;;
29686;SDS011;16599;47.078;15.536;2022-12-15T00:43:31;61.08;;;26.08;;
29686;SDS011;16599;47.078;15.536;2022-12-15T00:46:00;88.93;;;34.67;;
29686;SDS011;16599;47.078;15.536;2022-12-15T00:48:46;71.75;;;31.88;;
29686;SDS011;16599;47.078;15.536;2022-12-15T00:51:13;91.03;;;36.42;;
29686;SDS011;16599;47.078;15.536;2022-12-15T00:53:41;81.32;;;35.35;;
29686;SDS011;16599;47.078;15.536;2022-12-15T00:56:27;77.10;;;34.40;;
29686;SDS011;16599;47.078;15.536;2022-12-15T00:59:13;80.88;;;33.00;;
29686;SDS011;16599;47.078;15.536;2022-12-15T01:01:59;77.13;;;32.58;;
29686;SDS011;16599;47.078;15.536;2022-12-15T01:04:46;77.47;;;34.28;;
29686;SDS011;16599;47.078;15.536;2022-12-15T01:07:31;84.13;;;35.53;;
29686;SDS011;16599;47.078;15.536;2022-12-15T01:10:17;83.03;;;35.50;;
29686;SDS011;16599;47.078;15.536;2022-12-15T01:13:03;77.95;;;35.95;;
29686;SDS011;16599;47.078;15.536;2022-12-15T01:15:49;82.93;;;36.45;;
29686;SDS011;16599;47.078;15.536;2022-12-15T01:18:34;79.93;;;35.42;;
29686;SDS011;16599;47.078;15.536;2022-12-15T01:21:20;84.50;;;36.25;;
29686;SDS011;16599;47.078;15.536;2022-12-15T01:23:49;77.50;;;34.83;;
29686;SDS011;16599;47.078;15.536;2022-12-15T01:26:16;81.13;;;35.45;;
29686;SDS011;16599;47.078;15.536;2022-12-15T01:28:43;90.30;;;36.78;;
29686;SDS011;16599;47.078;15.536;2022-12-15T01:31:10;82.22;;;36.63;;
29686;SDS011;16599;47.078;15.536;2022-12-15T01:33:38;78.22;;;34.53;;
29686;SDS011;16599;47.078;15.536;2022-12-15T01:36:05;96.10;;;40.78;;
29686;SDS011;16599;47.078;15.536;2022-12-15T01:38:32;84.13;;;36.78;;
29686;SDS011;16599;47.078;15.536;2022-12-15T01:41:03;86.80;;;36.05;;
29686;SDS011;16599;47.078;15.536;2022-12-15T01:43:34;75.55;;;34.65;;
29686;SDS011;16599;47.078;15.536;2022-12-15T01:46:05;86.88;;;37.67;;
29686;SDS011;16599;47.078;15.536;2022-12-15T01:48:35;87.03;;;36.42;;
29686;SDS011;16599;47.078;15.536;2022-12-15T01:53:53;82.53;;;35.40;;
29686;SDS011;16599;47.078;15.536;2022-12-15T01:56:27;87.40;;;35.75;;
29686;SDS011;16599;47.078;15.536;2022-12-15T01:59:02;86.93;;;35.65;;
29686;SDS011;16599;47.078;15.536;2022-12-15T02:01:31;90.95;;;38.22;;
29686;SDS011;16599;47.078;15.536;2022-12-15T02:03:58;80.80;;;37.80;;
29686;SDS011;16599;47.078;15.536;2022-12-15T02:06:26;81.72;;;35.15;;
29686;SDS011;16599;47.078;15.536;2022-12-15T02:08:55;81.53;;;34.72;;
29686;SDS011;16599;47.078;15.536;2022-12-15T02:31:21;86.93;;;36.75;;
29686;SDS011;16599;47.078;15.536;2022-12-15T02:37:05;83.38;;;35.35;;
29686;SDS011;16599;47.078;15.536;2022-12-15T02:39:54;80.95;;;37.00;;
29686;SDS011;16599;47.078;15.536;2022-12-15T02:42:21;78.50;;;34.53;;
29686;SDS011;16599;47.078;15.536;2022-12-15T02:44:51;81.50;;;36.22;;
29686;SDS011;16599;47.078;15.536;2022-12-15T02:53:08;80.18;;;33.78;;
29686;SDS011;16599;47.078;15.536;2022-12-15T03:03:56;82.38;;;34.97;;
29686;SDS011;16599;47.078;15.536;2022-12-15T03:06:25;80.68;;;35.45;;
29686;SDS011;16599;47.078;15.536;2022-12-15T03:08:53;88.45;;;33.92;;
29686;SDS011;16599;47.078;15.536;2022-12-15T03:11:20;73.38;;;34.33;;
29686;SDS011;16599;47.078;15.536;2022-12-15T03:13:47;81.22;;;34.85;;
29686;SDS011;16599;47.078;15.536;2022-12-15T03:16:15;84.75;;;36.35;;
29686;SDS011;16599;47.078;15.536;2022-12-15T03:18:42;80.43;;;37.05;;
29686;SDS011;16599;47.078;15.536;2022-12-15T03:21:08;72.28;;;34.28;;
29686;SDS011;16599;47.078;15.536;2022-12-15T03:23:35;74.88;;;33.70;;
29686;SDS011;16599;47.078;15.536;2022-12-15T03:26:02;81.82;;;34.88;;
29686;SDS011;16599;47.078;15.536;2022-12-15T03:28:29;88.18;;;37.35;;
29686;SDS011;16599;47.078;15.536;2022-12-15T03:30:56;83.25;;;34.17;;
29686;SDS011;16599;47.078;15.536;2022-12-15T03:33:23;82.72;;;34.20;;
29686;SDS011;16599;47.078;15.536;2022-12-15T03:35:49;78.40;;;35.65;;
29686;SDS011;16599;47.078;15.536;2022-12-15T03:38:17;74.50;;;34.00;;
29686;SDS011;16599;47.078;15.536;2022-12-15T03:40:43;79.07;;;35.25;;
29686;SDS011;16599;47.078;15.536;2022-12-15T03:43:10;82.75;;;35.03;;
29686;SDS011;16599;47.078;15.536;2022-12-15T03:45:37;81.18;;;35.45;;
29686;SDS011;16599;47.078;15.536;2022-12-15T03:48:04;80.97;;;34.92;;
29686;SDS011;16599;47.078;15.536;2022-12-15T03:50:31;86.97;;;36.22;;
29686;SDS011;16599;47.078;15.536;2022-12-15T03:52:59;80.80;;;36.17;;
29686;SDS011;16599;47.078;15.536;2022-12-15T03:55:28;82.97;;;34.58;;
29686;SDS011;16599;47.078;15.536;2022-12-15T03:57:56;83.60;;;35.35;;
29686;SDS011;16599;47.078;15.536;2022-12-15T04:00:24;92.38;;;36.70;;
29686;SDS011;16599;47.078;15.536;2022-12-15T04:02:51;79.65;;;35.17;;
29686;SDS011;16599;47.078;15.536;2022-12-15T04:07:54;79.15;;;33.97;;
29686;SDS011;16599;47.078;15.536;2022-12-15T04:10:22;93.55;;;40.13;;
29686;SDS011;16599;47.078;15.536;2022-12-15T04:13:03;86.50;;;36.53;;
29686;SDS011;16599;47.078;15.536;2022-12-15T04:15:32;74.00;;;33.40;;
29686;SDS011;16599;47.078;15.536;2022-12-15T04:18:00;80.55;;;34.78;;
29686;SDS011;16599;47.078;15.536;2022-12-15T04:20:31;80.43;;;35.10;;
29686;SDS011;16599;47.078;15.536;2022-12-15T04:22:58;76.60;;;35.90;;
29686;SDS011;16599;47.078;15.536;2022-12-15T04:25:25;78.13;;;35.08;;
29686;SDS011;16599;47.078;15.536;2022-12-15T04:28:12;80.10;;;37.15;;
29686;SDS011;16599;47.078;15.536;2022-12-15T04:31:19;76.43;;;34.13;;
29686;SDS011;16599;47.078;15.536;2022-12-15T04:34:12;78.90;;;33.17;;
29686;SDS011;16599;47.078;15.536;2022-12-15T04:37:00;80.85;;;35.00;;
29686;SDS011;16599;47.078;15.536;2022-12-15T04:39:46;77.18;;;33.42;;
29686;SDS011;16599;47.078;15.536;2022-12-15T04:42:34;71.18;;;32.10;;
29686;SDS011;16599;47.078;15.536;2022-12-15T04:45:21;79.05;;;34.67;;
29686;SDS011;16599;47.078;15.536;2022-12-15T04:48:09;79.40;;;34.60;;
29686;SDS011;16599;47.078;15.536;2022-12-15T04:50:55;77.47;;;34.95;;
29686;SDS011;16599;47.078;15.536;2022-12-15T04:53:43;76.43;;;33.38;;
29686;SDS011;16599;47.078;15.536;2022-12-15T04:56:30;75.70;;;32.47;;
29686;SDS011;16599;47.078;15.536;2022-12-15T04:59:16;73.32;;;31.77;;
29686;SDS011;16599;47.078;15.536;2022-12-15T05:02:01;77.90;;;32.85;;
29686;SDS011;16599;47.078;15.536;2022-12-15T05:04:47;79.70;;;32.85;;
29686;SDS011;16599;47.078;15.536;2022-12-15T05:07:33;86.95;;;37.00;;
29686;SDS011;16599;47.078;15.536;2022-12-15T05:10:18;72.70;;;32.10;;
29686;SDS011;16599;47.078;15.536;2022-12-15T05:13:04;80.57;;;34.53;;
29686;SDS011;16599;47.078;15.536;2022-12-15T05:15:51;77.00;;;32.25;;
29686;SDS011;16599;47.078;15.536;2022-12-15T05:18:37;73.32;;;33.50;;
29686;SDS011;16599;47.078;15.536;2022-12-15T05:21:22;73.07;;;32.30;;
29686;SDS011;16599;47.078;15.536;2022-12-15T05:24:08;80.43;;;34.20;;
29686;SDS011;16599;47.078;15.536;2022-12-15T05:26:53;70.85;;;32.55;;
29686;SDS011;16599;47.078;15.536;2022-12-15T05:29:38;83.20;;;35.47;;
29686;SDS011;16599;47.078;15.536;2022-12-15T05:32:23;77.28;;;34.70;;
29686;SDS011;16599;47.078;15.536;2022-12-15T05:34:50;74.68;;;31.92;;
29686;SDS011;16599;47.078;15.536;2022-12-15T05:37:16;78.75;;;34.58;;
29686;SDS011;16599;47.078;15.536;2022-12-15T05:39:43;76.85;;;34.45;;
29686;SDS011;16599;47.078;15.536;2022-12-15T05:42:10;82.85;;;35.75;;
29686;SDS011;16599;47.078;15.536;2022-12-15T05:44:37;76.97;;;35.13;;
29686;SDS011;16599;47.078;15.536;2022-12-15T05:47:04;86.25;;;34.53;;
29686;SDS011;16599;47.078;15.536;2022-12-15T05:49:30;78.38;;;34.17;;
29686;SDS011;16599;47.078;15.536;2022-12-15T05:51:58;70.78;;;32.08;;
29686;SDS011;16599;47.078;15.536;2022-12-15T05:54:25;72.47;;;33.78;;
29686;SDS011;16599;47.078;15.536;2022-12-15T05:56:52;80.78;;;35.33;;
29686;SDS011;16599;47.078;15.536;2022-12-15T05:59:19;76.90;;;34.67;;
29686;SDS011;16599;47.078;15.536;2022-12-15T06:01:46;76.70;;;33.33;;
29686;SDS011;16599;47.078;15.536;2022-12-15T06:04:13;79.85;;;33.42;;
29686;SDS011;16599;47.078;15.536;2022-12-15T06:06:40;85.07;;;34.10;;
29686;SDS011;16599;47.078;15.536;2022-12-15T06:09:07;85.32;;;35.38;;
29686;SDS011;16599;47.078;15.536;2022-12-15T06:11:34;81.22;;;35.72;;
29686;SDS011;16599;47.078;15.536;2022-12-15T06:14:02;74.10;;;31.83;;
29686;SDS011;16599;47.078;15.536;2022-12-15T06:16:29;73.22;;;32.65;;
29686;SDS011;16599;47.078;15.536;2022-12-15T06:18:57;78.15;;;32.42;;
29686;SDS011;16599;47.078;15.536;2022-12-15T06:21:27;75.72;;;33.95;;
29686;SDS011;16599;47.078;15.536;2022-12-15T06:24:01;74.47;;;31.48;;
29686;SDS011;16599;47.078;15.536;2022-12-15T06:26:30;82.07;;;33.33;;
29686;SDS011;16599;47.078;15.536;2022-12-15T06:29:01;81.93;;;35.08;;
29686;SDS011;16599;47.078;15.536;2022-12-15T06:31:30;80.45;;;34.08;;
29686;SDS011;16599;47.078;15.536;2022-12-15T06:33:58;76.03;;;32.30;;
29686;SDS011;16599;47.078;15.536;2022-12-15T06:36:27;82.03;;;34.47;;
29686;SDS011;16599;47.078;15.536;2022-12-15T06:39:00;79.40;;;34.33;;
29686;SDS011;16599;47.078;15.536;2022-12-15T06:41:28;75.13;;;32.60;;
29686;SDS011;16599;47.078;15.536;2022-12-15T06:43:56;73.85;;;31.98;;
29686;SDS011;16599;47.078;15.536;2022-12-15T06:46:24;72.20;;;30.73;;
29686;SDS011;16599;47.078;15.536;2022-12-15T06:48:53;76.75;;;33.53;;
29686;SDS011;16599;47.078;15.536;2022-12-15T06:51:20;76.55;;;33.45;;
29686;SDS011;16599;47.078;15.536;2022-12-15T06:53:46;69.90;;;32.17;;
29686;SDS011;16599;47.078;15.536;2022-12-15T06:58:57;81.47;;;34.38;;
29686;SDS011;16599;47.078;15.536;2022-12-15T07:01:24;89.32;;;36.63;;
29686;SDS011;16599;47.078;15.536;2022-12-15T07:03:52;83.88;;;35.72;;
29686;SDS011;16599;47.078;15.536;2022-12-15T07:06:19;85.90;;;35.33;;
29686;SDS011;16599;47.078;15.536;2022-12-15T07:08:48;82.15;;;33.55;;
29686;SDS011;16599;47.078;15.536;2022-12-15T07:11:21;79.05;;;33.42;;
29686;SDS011;16599;47.078;15.536;2022-12-15T07:13:52;79.82;;;35.15;;
29686;SDS011;16599;47.078;15.536;2022-12-15T07:16:19;81.60;;;34.47;;
29686;SDS011;16599;47.078;15.536;2022-12-15T07:18:48;92.05;;;36.97;;
29686;SDS011;16599;47.078;15.536;2022-12-15T07:21:15;77.70;;;34.78;;
29686;SDS011;16599;47.078;15.536;2022-12-15T07:23:42;86.20;;;35.75;;
29686;SDS011;16599;47.078;15.536;2022-12-15T07:26:27;75.25;;;32.67;;
29686;SDS011;16599;47.078;15.536;2022-12-15T07:28:54;81.57;;;34.55;;
29686;SDS011;16599;47.078;15.536;2022-12-15T07:31:21;83.43;;;34.53;;
29686;SDS011;16599;47.078;15.536;2022-12-15T07:33:48;89.47;;;36.78;;
29686;SDS011;16599;47.078;15.536;2022-12-15T07:36:17;86.30;;;36.53;;
29686;SDS011;16599;47.078;15.536;2022-12-15T07:38:45;79.68;;;35.00;;
29686;SDS011;16599;47.078;15.536;2022-12-15T07:41:16;81.25;;;37.03;;
29686;SDS011;16599;47.078;15.536;2022-12-15T07:43:43;85.68;;;37.15;;
29686;SDS011;16599;47.078;15.536;2022-12-15T07:46:11;81.05;;;32.95;;
29686;SDS011;16599;47.078;15.536;2022-12-15T07:48:38;81.53;;;35.83;;
29686;SDS011;16599;47.078;15.536;2022-12-15T07:51:05;81.97;;;36.17;;
29686;SDS011;16599;47.078;15.536;2022-12-15T07:53:42;80.57;;;34.25;;
29686;SDS011;16599;47.078;15.536;2022-12-15T07:56:09;91.57;;;37.40;;
29686;SDS011;16599;47.078;15.536;2022-12-15T07:58:36;84.97;;;38.03;;
29686;SDS011;16599;47.078;15.536;2022-12-15T08:01:04;84.30;;;38.95;;
29686;SDS011;16599;47.078;15.536;2022-12-15T08:03:33;87.50;;;37.13;;
29686;SDS011;16599;47.078;15.536;2022-12-15T08:06:05;79.45;;;36.35;;
29686;SDS011;16599;47.078;15.536;2022-12-15T08:08:36;83.28;;;36.40;;
29686;SDS011;16599;47.078;15.536;2022-12-15T08:11:04;80.47;;;37.13;;
29686;SDS011;16599;47.078;15.536;2022-12-15T08:13:32;90.07;;;37.30;;
29686;SDS011;16599;47.078;15.536;2022-12-15T08:16:27;88.18;;;35.97;;
29686;SDS011;16599;47.078;15.536;2022-12-15T08:18:55;79.85;;;35.33;;
29686;SDS011;16599;47.078;15.536;2022-12-15T08:21:24;87.60;;;37.20;;
29686;SDS011;16599;47.078;15.536;2022-12-15T08:23:52;88.90;;;38.47;;
29686;SDS011;16599;47.078;15.536;2022-12-15T08:26:20;86.82;;;38.88;;
29686;SDS011;16599;47.078;15.536;2022-12-15T08:28:55;94.43;;;41.13;;
29686;SDS011;16599;47.078;15.536;2022-12-15T08:31:42;97.60;;;41.53;;
29686;SDS011;16599;47.078;15.536;2022-12-15T08:34:09;88.80;;;38.30;;
29686;SDS011;16599;47.078;15.536;2022-12-15T08:36:36;93.53;;;38.72;;
29686;SDS011;16599;47.078;15.536;2022-12-15T08:39:04;92.53;;;39.55;;
29686;SDS011;16599;47.078;15.536;2022-12-15T08:41:31;84.63;;;37.47;;
29686;SDS011;16599;47.078;15.536;2022-12-15T08:43:59;88.93;;;40.22;;
29686;SDS011;16599;47.078;15.536;2022-12-15T08:46:28;93.70;;;38.45;;
29686;SDS011;16599;47.078;15.536;2022-12-15T08:49:10;88.40;;;37.95;;
29686;SDS011;16599;47.078;15.536;2022-12-15T08:51:48;93.85;;;39.08;;
29686;SDS011;16599;47.078;15.536;2022-12-15T08:54:16;95.50;;;41.47;;
29686;SDS011;16599;47.078;15.536;2022-12-15T08:56:44;88.32;;;40.30;;
29686;SDS011;16599;47.078;15.536;2022-12-15T08:59:11;93.70;;;39.40;;
29686;SDS011;16599;47.078;15.536;2022-12-15T09:01:38;86.43;;;39.80;;
29686;SDS011;16599;47.078;15.536;2022-12-15T09:04:05;93.38;;;41.80;;
29686;SDS011;16599;47.078;15.536;2022-12-15T09:06:33;89.38;;;40.67;;
29686;SDS011;16599;47.078;15.536;2022-12-15T09:09:04;94.57;;;41.80;;
29686;SDS011;16599;47.078;15.536;2022-12-15T09:11:33;95.57;;;42.10;;
29686;SDS011;16599;47.078;15.536;2022-12-15T09:14:00;100.63;;;41.92;;
29686;SDS011;16599;47.078;15.536;2022-12-15T09:16:27;89.45;;;39.97;;
29686;SDS011;16599;47.078;15.536;2022-12-15T09:18:55;73.78;;;34.70;;
29686;SDS011;16599;47.078;15.536;2022-12-15T09:21:25;90.75;;;39.95;;
29686;SDS011;16599;47.078;15.536;2022-12-15T09:23:55;79.90;;;34.17;;
29686;SDS011;16599;47.078;15.536;2022-12-15T09:26:27;82.45;;;37.03;;
29686;SDS011;16599;47.078;15.536;2022-12-15T09:28:55;80.70;;;35.05;;
29686;SDS011;16599;47.078;15.536;2022-12-15T09:31:24;77.82;;;36.63;;
29686;SDS011;16599;47.078;15.536;2022-12-15T09:33:57;74.07;;;34.80;;
29686;SDS011;16599;47.078;15.536;2022-12-15T09:38:52;77.35;;;36.15;;
29686;SDS011;16599;47.078;15.536;2022-12-15T09:41:24;77.65;;;35.60;;
29686;SDS011;16599;47.078;15.536;2022-12-15T09:43:57;78.00;;;35.85;;
29686;SDS011;16599;47.078;15.536;2022-12-15T09:52:26;87.10;;;37.33;;
29686;SDS011;16599;47.078;15.536;2022-12-15T09:54:55;77.20;;;36.50;;
29686;SDS011;16599;47.078;15.536;2022-12-15T09:57:31;75.15;;;37.08;;
29686;SDS011;16599;47.078;15.536;2022-12-15T10:05:33;84.45;;;37.00;;
29686;SDS011;16599;47.078;15.536;2022-12-15T10:08:38;85.60;;;36.60;;
29686;SDS011;16599;47.078;15.536;2022-12-15T10:11:18;86.18;;;38.20;;
29686;SDS011;16599;47.078;15.536;2022-12-15T10:16:47;83.47;;;40.47;;
29686;SDS011;16599;47.078;15.536;2022-12-15T10:21:55;80.85;;;37.38;;
29686;SDS011;16599;47.078;15.536;2022-12-15T10:24:23;84.47;;;37.50;;
29686;SDS011;16599;47.078;15.536;2022-12-15T10:30:15;80.82;;;37.85;;
29686;SDS011;16599;47.078;15.536;2022-12-15T10:32:43;83.40;;;39.65;;
29686;SDS011;16599;47.078;15.536;2022-12-15T10:35:40;79.28;;;37.78;;
29686;SDS011;16599;47.078;15.536;2022-12-15T10:38:27;77.15;;;38.53;;
29686;SDS011;16599;47.078;15.536;2022-12-15T10:41:00;80.18;;;36.08;;
29686;SDS011;16599;47.078;15.536;2022-12-15T10:43:37;79.60;;;37.33;;
29686;SDS011;16599;47.078;15.536;2022-12-15T10:46:11;75.53;;;37.10;;
29686;SDS011;16599;47.078;15.536;2022-12-15T10:48:41;77.57;;;36.55;;
29686;SDS011;16599;47.078;15.536;2022-12-15T10:51:27;71.57;;;36.00;;
29686;SDS011;16599;47.078;15.536;2022-12-15T10:54:03;80.40;;;36.95;;
29686;SDS011;16599;47.078;15.536;2022-12-15T10:56:32;80.07;;;37.40;;
29686;SDS011;16599;47.078;15.536;2022-12-15T10:59:05;75.80;;;35.13;;
29686;SDS011;16599;47.078;15.536;2022-12-15T11:01:50;78.37;;;38.60;;
29686;SDS011;16599;47.078;15.536;2022-12-15T11:04:25;81.47;;;37.70;;
29686;SDS011;16599;47.078;15.536;2022-12-15T11:06:57;75.25;;;38.00;;
29686;SDS011;16599;47.078;15.536;2022-12-15T11:09:33;87.03;;;37.88;;
29686;SDS011;16599;47.078;15.536;2022-12-15T11:12:11;82.03;;;38.50;;
29686;SDS011;16599;47.078;15.536;2022-12-15T11:17:58;76.05;;;35.67;;
29686;SDS011;16599;47.078;15.536;2022-12-15T11:20:36;80.07;;;35.40;;
29686;SDS011;16599;47.078;15.536;2022-12-15T11:29:29;72.88;;;33.17;;
29686;SDS011;16599;47.078;15.536;2022-12-15T11:32:25;67.90;;;32.85;;
29686;SDS011;16599;47.078;15.536;2022-12-15T11:34:54;72.22;;;33.55;;
29686;SDS011;16599;47.078;15.536;2022-12-15T11:37:38;75.25;;;34.28;;
29686;SDS011;16599;47.078;15.536;2022-12-15T11:42:52;79.90;;;35.67;;
29686;SDS011;16599;47.078;15.536;2022-12-15T11:51:09;70.90;;;31.92;;
29686;SDS011;16599;47.078;15.536;2022-12-15T11:59:08;70.97;;;32.55;;
29686;SDS011;16599;47.078;15.536;2022-12-15T12:02:39;77.85;;;35.85;;
29686;SDS011;16599;47.078;15.536;2022-12-15T12:05:11;69.22;;;32.92;;
29686;SDS011;16599;47.078;15.536;2022-12-15T12:07:55;75.05;;;36.25;;
29686;SDS011;16599;47.078;15.536;2022-12-15T12:19:37;73.50;;;35.17;;
29686;SDS011;16599;47.078;15.536;2022-12-15T12:22:24;71.93;;;34.95;;
29686;SDS011;16599;47.078;15.536;2022-12-15T12:25:16;69.53;;;32.47;;
29686;SDS011;16599;47.078;15.536;2022-12-15T12:27:48;75.30;;;35.03;;
29686;SDS011;16599;47.078;15.536;2022-12-15T12:30:24;82.53;;;36.88;;
29686;SDS011;16599;47.078;15.536;2022-12-15T12:33:22;84.20;;;38.72;;
29686;SDS011;16599;47.078;15.536;2022-12-15T12:35:56;90.63;;;38.20;;
29686;SDS011;16599;47.078;15.536;2022-12-15T12:38:35;82.75;;;39.15;;
29686;SDS011;16599;47.078;15.536;2022-12-15T12:41:09;92.18;;;39.80;;
29686;SDS011;16599;47.078;15.536;2022-12-15T12:43:53;81.82;;;38.13;;
29686;SDS011;16599;47.078;15.536;2022-12-15T12:48:59;86.68;;;39.47;;
29686;SDS011;16599;47.078;15.536;2022-12-15T12:51:36;89.70;;;40.28;;
29686;SDS011;16599;47.078;15.536;2022-12-15T12:54:37;90.85;;;39.25;;
29686;SDS011;16599;47.078;15.536;2022-12-15T12:57:28;82.43;;;38.53;;
29686;SDS011;16599;47.078;15.536;2022-12-15T12:59:59;87.97;;;40.92;;
29686;SDS011;16599;47.078;15.536;2022-12-15T13:05:01;93.38;;;42.83;;
29686;SDS011;16599;47.078;15.536;2022-12-15T13:10:34;90.70;;;42.03;;
29686;SDS011;16599;47.078;15.536;2022-12-15T13:20:49;85.57;;;38.85;;
29686;SDS011;16599;47.078;15.536;2022-12-15T13:28:23;89.60;;;40.53;;
29686;SDS011;16599;47.078;15.536;2022-12-15T13:44:35;89.32;;;41.67;;
29686;SDS011;16599;47.078;15.536;2022-12-15T13:49:51;95.32;;;42.05;;
29686;SDS011;16599;47.078;15.536;2022-12-15T13:52:33;94.55;;;42.47;;
29686;SDS011;16599;47.078;15.536;2022-12-15T13:55:31;94.28;;;41.75;;
29686;SDS011;16599;47.078;15.536;2022-12-15T13:58:09;84.18;;;39.65;;
29686;SDS011;16599;47.078;15.536;2022-12-15T14:00:46;92.93;;;41.35;;
29686;SDS011;16599;47.078;15.536;2022-12-15T14:03:19;95.80;;;43.22;;
29686;SDS011;16599;47.078;15.536;2022-12-15T14:05:47;87.50;;;40.72;;
29686;SDS011;16599;47.078;15.536;2022-12-15T14:08:25;90.70;;;42.28;;
29686;SDS011;16599;47.078;15.536;2022-12-15T14:10:56;88.18;;;40.35;;
29686;SDS011;16599;47.078;15.536;2022-12-15T14:13:26;90.43;;;40.67;;
29686;SDS011;16599;47.078;15.536;2022-12-15T14:18:40;95.03;;;42.30;;
29686;SDS011;16599;47.078;15.536;2022-12-15T14:21:21;95.57;;;41.65;;
29686;SDS011;16599;47.078;15.536;2022-12-15T14:23:50;86.05;;;39.45;;
29686;SDS011;16599;47.078;15.536;2022-12-15T14:26:36;83.55;;;41.05;;
29686;SDS011;16599;47.078;15.536;2022-12-15T14:29:04;90.88;;;41.85;;
29686;SDS011;16599;47.078;15.536;2022-12-15T14:31:31;91.22;;;43.67;;
29686;SDS011;16599;47.078;15.536;2022-12-15T14:34:02;99.97;;;46.58;;
29686;SDS011;16599;47.078;15.536;2022-12-15T14:36:34;99.93;;;43.70;;
29686;SDS011;16599;47.078;15.536;2022-12-15T14:39:02;88.53;;;41.63;;
29686;SDS011;16599;47.078;15.536;2022-12-15T14:41:39;91.72;;;43.72;;
29686;SDS011;16599;47.078;15.536;2022-12-15T14:44:18;93.43;;;42.40;;
29686;SDS011;16599;47.078;15.536;2022-12-15T14:47:07;88.75;;;42.30;;
29686;SDS011;16599;47.078;15.536;2022-12-15T14:49:47;88.60;;;41.97;;
29686;SDS011;16599;47.078;15.536;2022-12-15T14:52:26;96.30;;;42.97;;
29686;SDS011;16599;47.078;15.536;2022-12-15T14:58:02;97.68;;;43.00;;
29686;SDS011;16599;47.078;15.536;2022-12-15T15:00:48;96.05;;;44.00;;
29686;SDS011;16599;47.078;15.536;2022-12-15T15:03:19;94.05;;;41.72;;
29686;SDS011;16599;47.078;15.536;2022-12-15T15:08:28;90.50;;;41.47;;
29686;SDS011;16599;47.078;15.536;2022-12-15T15:10:59;99.05;;;41.95;;
29686;SDS011;16599;47.078;15.536;2022-12-15T15:13:38;88.65;;;41.83;;
29686;SDS011;16599;47.078;15.536;2022-12-15T15:16:06;93.70;;;42.45;;
29686;SDS011;16599;47.078;15.536;2022-12-15T15:18:49;95.53;;;43.30;;
29686;SDS011;16599;47.078;15.536;2022-12-15T15:21:20;90.13;;;41.65;;
29686;SDS011;16599;47.078;15.536;2022-12-15T15:26:37;90.35;;;41.38;;
29686;SDS011;16599;47.078;15.536;2022-12-15T15:32:05;88.18;;;40.55;;
29686;SDS011;16599;47.078;15.536;2022-12-15T15:34:33;90.53;;;41.42;;
29686;SDS011;16599;47.078;15.536;2022-12-15T15:37:00;93.53;;;43.25;;
29686;SDS011;16599;47.078;15.536;2022-12-15T15:39:31;88.93;;;42.20;;
29686;SDS011;16599;47.078;15.536;2022-12-15T15:42:02;88.05;;;42.28;;
29686;SDS011;16599;47.078;15.536;2022-12-15T15:44:30;90.78;;;39.88;;
29686;SDS011;16599;47.078;15.536;2022-12-15T15:46:58;94.55;;;41.15;;
29686;SDS011;16599;47.078;15.536;2022-12-15T15:49:25;97.43;;;45.53;;
29686;SDS011;16599;47.078;15.536;2022-12-15T15:51:53;100.80;;;44.25;;
29686;SDS011;16599;47.078;15.536;2022-12-15T15:54:22;89.93;;;43.28;;
29686;SDS011;16599;47.078;15.536;2022-12-15T15:56:50;92.45;;;43.60;;
29686;SDS011;16599;47.078;15.536;2022-12-15T15:59:18;98.88;;;44.47;;
29686;SDS011;16599;47.078;15.536;2022-12-15T16:01:53;90.70;;;41.90;;
29686;SDS011;16599;47.078;15.536;2022-12-15T16:04:21;95.28;;;44.03;;
29686;SDS011;16599;47.078;15.536;2022-12-15T16:06:50;93.57;;;42.92;;
29686;SDS011;16599;47.078;15.536;2022-12-15T16:09:18;93.25;;;42.38;;
29686;SDS011;16599;47.078;15.536;2022-12-15T16:11:50;95.25;;;43.58;;
29686;SDS011;16599;47.078;15.536;2022-12-15T16:14:17;97.18;;;44.22;;
29686;SDS011;16599;47.078;15.536;2022-12-15T16:16:44;99.97;;;42.50;;
29686;SDS011;16599;47.078;15.536;2022-12-15T16:19:11;93.40;;;43.28;;
29686;SDS011;16599;47.078;15.536;2022-12-15T16:21:39;95.25;;;43.28;;
29686;SDS011;16599;47.078;15.536;2022-12-15T16:24:08;97.40;;;42.15;;
29686;SDS011;16599;47.078;15.536;2022-12-15T16:26:40;98.65;;;43.78;;
29686;SDS011;16599;47.078;15.536;2022-12-15T16:29:13;90.60;;;42.05;;
29686;SDS011;16599;47.078;15.536;2022-12-15T16:31:41;97.13;;;43.75;;
29686;SDS011;16599;47.078;15.536;2022-12-15T16:34:11;94.13;;;43.35;;
29686;SDS011;16599;47.078;15.536;2022-12-15T16:36:39;97.63;;;42.88;;
29686;SDS011;16599;47.078;15.536;2022-12-15T16:41:54;114.38;;;50.63;;
29686;SDS011;16599;47.078;15.536;2022-12-15T16:44:23;169.75;;;65.80;;
29686;SDS011;16599;47.078;15.536;2022-12-15T16:46:51;173.02;;;69.30;;
29686;SDS011;16599;47.078;15.536;2022-12-15T16:49:18;138.82;;;57.63;;
29686;SDS011;16599;47.078;15.536;2022-12-15T16:51:45;144.70;;;57.95;;
29686;SDS011;16599;47.078;15.536;2022-12-15T16:54:18;165.63;;;64.05;;
29686;SDS011;16599;47.078;15.536;2022-12-15T16:56:48;133.27;;;54.42;;
29686;SDS011;16599;47.078;15.536;2022-12-15T16:59:20;141.68;;;56.72;;
29686;SDS011;16599;47.078;15.536;2022-12-15T17:02:37;138.30;;;56.58;;
29686;SDS011;16599;47.078;15.536;2022-12-15T17:05:16;124.28;;;52.95;;
29686;SDS011;16599;47.078;15.536;2022-12-15T17:08:03;113.47;;;50.63;;
29686;SDS011;16599;47.078;15.536;2022-12-15T17:10:44;113.45;;;50.58;;
29686;SDS011;16599;47.078;15.536;2022-12-15T17:13:33;129.23;;;53.55;;
29686;SDS011;16599;47.078;15.536;2022-12-15T17:16:10;131.75;;;53.00;;
29686;SDS011;16599;47.078;15.536;2022-12-15T17:18:39;134.43;;;56.67;;
29686;SDS011;16599;47.078;15.536;2022-12-15T17:21:10;131.82;;;55.05;;
29686;SDS011;16599;47.078;15.536;2022-12-15T17:23:43;125.85;;;55.53;;